Pagosa Springs, Colorado
Current Conditions -  °F | °C
As of 2:15 PM on Sunday 23 Nov 2014 (Local Time) from KPSO Reporting Station
Clear Clear  
Wind Chill: 28°   Ceiling: Unl
Heat Index: 37°   Visibility: 10mi
Dew Point:   Wind: 15mph
Humidity: 20%   Direction: 310°NW
Pressure: 29.79"   Gusts: NA
Location:  37.27°N, 107.02°W
Report Text: KPSO 232115Z AUTO 31013KT 10SM CLR 03/M18 A2979 RMK AO2 T00291180
Loading
Personal Weather Stations






























Interactive Weather Map New forecast layout! Learn more

10-Day Weather Forecast

Advertisements
Track Severe Weather on mobile